Nearby METAR Reports

 

KAGC - Pittsburgh/Alleg, Pennsylvania, USA
Distance from station: N 14mi, 23km
Updated: Sun, Feb-25-2018 8:04am EST
Overcast
Overcast
 Wind from SSW
Wind: SSW 15 mph , 24 km/h
Temperature: 57°F , 14°C
Dew Point: 52°F , 11°C
Humidity: 82%
Barometer: 29.78 inHg , 1008.5 hPa
Clouds: Overcast
Visibility: 10 miles , 16 km
Cloud details: Mostly cloudy 2400 ft
Mostly cloudy 3000 ft
Overcast 11000 ft
2018/02/25 13:04 KAGC 251304Z 21013KT 10SM BKN024 BKN030 OVC110 14/11 A2978 RMK AO2 T01390111
KAFJ - Washington, Pennsylvania, USA
Distance from station: W 17mi, 28km
Updated: Sun, Feb-25-2018 7:56am EST
Overcast
Overcast
 Wind from SW
Wind: SW 14 mph , 22 km/h, Gust: 18 mph , 30 km/h
Temperature: 57°F , 14°C
Dew Point: 54°F , 12°C
Humidity: 88%
Barometer: 29.83 inHg , 1010.2 hPa
Clouds: Overcast
Visibility: 10 miles , 16 km
Cloud details: Mostly cloudy 2100 ft
Overcast 11000 ft
2018/02/25 12:56 KAFJ 251256Z AUTO 22012G16KT 10SM BKN021 OVC110 14/12 A2983 RMK AO2 SLP100 T01440117
 
KLBE - Latrobe, Pennsylvania, USA
Distance from station: ENE 30mi, 48km
Updated: Sun, Feb-25-2018 7:50am EST
Mostly cloudy
Mostly cloudy
 Wind from SW
Wind: SW 16 mph , 26 km/h
Temperature: 57°F , 14°C
Dew Point: 54°F , 12°C
Humidity: 88%
Barometer: 29.81 inHg , 1009.5 hPa
Clouds: Mostly cloudy
Visibility: 7 miles , 11 km
Cloud details: Mostly cloudy 4000 ft
2018/02/25 12:50 KLBE 251250Z 22014KT 7SM BKN040 14/12 A2981
KPIT - Pittsburgh, Pennsylvania, USA
Distance from station: NW 30mi, 48km
Updated: Sun, Feb-25-2018 7:51am EST
Overcast
Overcast
 Wind from SW
Wind: SW 15 mph , 24 km/h, Gust: 24 mph , 39 km/h
Temperature: 61°F , 16°C
Dew Point: 54°F , 12°C
Humidity: 77%
Barometer: 29.76 inHg , 1007.8 hPa
Clouds: Overcast
Visibility: 10 miles , 16 km
Cloud details: Mostly cloudy 2700 ft
Overcast 3500 ft
2018/02/25 12:51 KPIT 251251Z 22013G21KT 10SM BKN027 OVC035 16/12 A2976 RMK AO2 PK WND 21028/1233 SLP085 T01560117 $
 
KMGW - Morgantown, West Virginia, USA
Distance from station: S 34mi, 55km
Updated: Sun, Feb-25-2018 7:53am EST
Light rain, Overcast
Light rain, Overcast
 Wind from S
Wind: S 10 mph , 17 km/h, Gust: 21 mph , 33 km/h
Temperature: 57°F , 14°C
Dew Point: 54°F , 12°C
Humidity: 88%
Barometer: 29.85 inHg , 1010.8 hPa
Summary: Light rain
Clouds: Overcast
Visibility: 10 miles , 16 km
Cloud details: Partly cloudy 7500 ft
Overcast 9000 ft
2018/02/25 12:53 KMGW 251253Z 17009G18KT 10SM -RA SCT075 OVC090 14/12 A2985 RMK AO2 SLP107 P0001 T01390117
KHLG - Wheeling, West Virginia, USA
Distance from station: W 37mi, 60km
Updated: Sun, Feb-25-2018 7:53am EST
Overcast
Overcast
 Wind from SSW
Wind: SSW 16 mph , 26 km/h, Gust: 26 mph , 43 km/h
Temperature: 57°F , 14°C
Dew Point: 52°F , 11°C
Humidity: 82%
Barometer: 29.78 inHg , 1008.5 hPa
Clouds: Overcast
Visibility: 10 miles , 16 km
Cloud details: Mostly cloudy 2000 ft
Overcast 2600 ft
2018/02/25 12:53 KHLG 251253Z AUTO 21014G23KT 10SM BKN020 OVC026 14/11 A2978 RMK AO2 PK WND 19029/1216 SLP088 T01390111
 
KBTP - Butler Co., Pennsylvania, USA
Distance from station: N 43mi, 69km
Updated: Sun, Feb-25-2018 7:56am EST
Overcast
Overcast
 Wind from SW
Wind: SW 15 mph , 24 km/h, Gust: 20 mph , 31 km/h
Temperature: 57°F , 14°C
Dew Point: 54°F , 12°C
Humidity: 88%
Barometer: 29.78 inHg , 1008.5 hPa
Clouds: Overcast
Visibility: 10 miles , 16 km
Cloud details: Overcast 2600 ft
2018/02/25 12:56 KBTP 251256Z AUTO 22013G17KT 10SM OVC026 14/12 A2978 RMK AO2 PRESRR SLP092 T01440117
KBVI - Beaver Falls Arp, Pennsylvania, USA
Distance from station: NNW 49mi, 79km
Updated: Sat, Feb-24-2018 3:47pm EST
NOT Current
Light rain, Overcast
Light rain, Overcast
 Wind from E
Wind: E 8 mph , 13 km/h
Temperature: 45°F , 7°C
Wind Chill: 41°F , 5°C
Dew Point: 43°F , 6°C
Humidity: 93%
Barometer: 30.04 inHg , 1017.3 hPa
Summary: Light rain
Clouds: Overcast
Visibility: 10 miles , 16 km
Cloud details: Overcast 700 ft
2018/02/24 20:47 KBVI 242047Z 10007KT 10SM -RA OVC007 07/06 A3004
 
K2G4 - Garrett Co, Maryland, USA
Distance from station: SE 51mi, 82km
Updated: Sun, Feb-25-2018 7:55am EST
Mostly cloudy
Mostly cloudy
 Wind from SSW
Wind: SSW 15 mph , 24 km/h, Gust: 20 mph , 31 km/h
Temperature: 46°F , 8°C
Wind Chill: 40°F , 4°C
Dew Point: 46°F , 8°C
Humidity: 100%
Barometer: 29.91 inHg , 1012.9 hPa
Clouds: Mostly cloudy
Visibility: 7 miles , 11 km
Cloud details: Partly cloudy 300 ft
Mostly cloudy 1100 ft
Mostly cloudy 1600 ft
2018/02/25 12:55 K2G4 251255Z AUTO 21013G17KT 7SM SCT003 BKN011 BKN016 08/08 A2991 RMK AO1
KIDI - Indiana/Stewart, Pennsylvania, USA
Distance from station: NE 56mi, 90km
Updated: Sun, Feb-25-2018 7:55am EST
Overcast
Overcast
 Wind from S
Wind: S 12 mph , 19 km/h
Temperature: 50°F , 10°C
Wind Chill: 45°F , 7°C
Dew Point: 48°F , 9°C
Humidity: 94%
Barometer: 29.85 inHg , 1010.8 hPa
Clouds: Overcast
Visibility: 10 miles , 16 km
Cloud details: Few Clouds 7500 ft
Overcast 10000 ft
2018/02/25 12:55 KIDI 251255Z AUTO 19010KT 160V220 10SM FEW075 OVC100 10/09 A2985 RMK A01
 
KJST - Johnstown, Pennsylvania, USA
Distance from station: ENE 60mi, 96km
Updated: Sun, Feb-25-2018 7:54am EST
Overcast
Overcast
 Wind from SSE
Wind: SSE 14 mph , 22 km/h, Gust: 18 mph , 30 km/h
Temperature: 45°F , 7°C
Wind Chill: 39°F , 4°C
Dew Point: 43°F , 6°C
Humidity: 93%
Barometer: 29.84 inHg , 1010.5 hPa
Clouds: Overcast
Visibility: 10 miles , 16 km
Cloud details: Partly cloudy 6500 ft
Partly cloudy 8000 ft
Overcast 10000 ft
2018/02/25 12:54 KJST 251254Z AUTO 16012G16KT 10SM SCT065 SCT080 OVC100 07/06 A2984 RMK AO2 RAE53 SLP114 P0002 T00720056
KCBE - Cumberland Reg, Maryland, USA
Distance from station: ESE 72mi, 116km
Updated: Sun, Feb-25-2018 7:57am EST
Mostly cloudy
Mostly cloudy
 Wind from calm
Wind: Calm
Temperature: 45°F , 7°C
Dew Point: 45°F , 7°C
Humidity: 100%
Barometer: 30.00 inHg , 1015.9 hPa
Clouds: Mostly cloudy
Visibility: 10 miles , 16 km
Cloud details: Partly cloudy 600 ft
Partly cloudy 1300 ft
Mostly cloudy 2000 ft
2018/02/25 12:57 KCBE 251257Z AUTO 00000KT 10SM SCT006 SCT013 BKN020 07/07 A3000 RMK AO1
 
KILG - Wilmington, Delaware, USA
Distance from station: ESE 234mi, 377km
Updated: Sun, Feb-25-2018 8:05am EST
Rain, Mist, Overcast
Rain, Mist, Overcast
 Wind from ENE
Wind: ENE 8 mph , 13 km/h
Temperature: 45°F , 7°C
Wind Chill: 41°F , 5°C
Dew Point: 45°F , 7°C
Humidity: 100%
Barometer: 30.01 inHg , 1016.3 hPa
Summary: Rain, Mist
Clouds: Overcast
Visibility: 3 miles , 5 km
Cloud details: Overcast 400 ft
2018/02/25 13:05 KILG 251305Z 06007KT 3SM RA BR OVC004 07/07 A3001 RMK AO2 P0005 T00670067 $
KTUS - Tucson, Arizona, USA
Distance from station: WSW 1806mi, 3283km
Updated: Sun, Feb-25-2018 7:53am EST
Clear
Clear
 Wind from S
Wind: S 7 mph , 11 km/h
Temperature: 34°F , 1°C
Wind Chill: 28°F , -2°C
Dew Point: 23°F , -5°C
Humidity: 65%
Barometer: 30.15 inHg , 1021 hPa
Clouds: Clear
Visibility: 10 miles , 16 km
2018/02/25 12:53 KTUS 251253Z 17006KT 10SM CLR 01/M05 A3015 RMK AO2 SLP204 T00111050